Terminal Aerodrome Forecast
Issued by NWS

Home | Current Version | Previous Version | Text Only | Print | Product List | Glossary On
Versions: 1 2 3 4 5 6 7 8 9 10 11 12 13 14 15 16 17 18 19 20 21
000
FTUS44 KLZK 211921 AAA
TAFLLQ
TAF AMD
KLLQ 211921Z 2119/2218 18010G18KT P6SM VCSH SCT012 OVC060
      TEMPO 2120/2124 -SHRA BKN020
     FM220100 16012G18KT P6SM VCTS BKN025 OVC050CB
      TEMPO 2202/2206 5SM -TSRA BR BKN015 OVC040CB
     FM220600 15012G22KT P6SM -TSRA BKN025 OVC040CB
      TEMPO 2206/2210 VRB15G30KT 2SM TSRA BR OVC015CB
     FM221200 22012G22KT P6SM SCT025 BKN080=

USA.gov is the U.S. government's official web portal to all federal, state and local government web resources and services.